Time;durP1;ratioP1;P1;durP2;ratioP2;P2;SDS_P1;SDS_P2;PMS_P1;PMS_P2;Temp;Humidity;BMP_temperature;BMP_pressure;BME280_temperature;BME280_humidity;BME280_pressure;Samples;Min_cycle;Max_cycle;Signal;HPM_P1;HPM_P2
2021/11/20 00:00:59;;;;;;;35.72;23.85;;;;;;;10.19;100.00;102381.66;5041111;28;20575;-89
2021/11/20 00:03:25;;;;;;;36.08;24.65;;;;;;;10.17;100.00;102363.00;5059759;28;20071;-88
2021/11/20 00:05:52;;;;;;;35.58;28.08;;;;;;;10.19;100.00;102362.03;5039469;28;20120;-88
2021/11/20 00:08:21;;;;;;;40.70;25.48;;;;;;;10.17;100.00;102367.53;5060271;28;20040;-88
2021/11/20 00:10:49;;;;;;;37.90;27.50;;;;;;;10.19;100.00;102362.03;5060989;28;20549;-88
2021/11/20 00:13:15;;;;;;;37.67;26.00;;;;;;;10.18;100.00;102350.44;5039529;28;20410;-88
2021/11/20 00:15:47;;;;;;;38.67;23.65;;;;;;;10.16;100.00;102344.38;5058539;28;20068;-87
2021/11/20 00:18:14;;;;;;;38.78;25.83;;;;;;;10.15;100.00;102346.16;5043149;28;20037;-88
2021/11/20 00:20:48;;;;;;;40.67;25.85;;;;;;;10.14;100.00;102352.53;5031330;28;20174;-89
2021/11/20 00:23:17;;;;;;;40.00;25.58;;;;;;;10.13;100.00;102339.25;5052092;28;20711;-88
2021/11/20 00:25:56;;;;;;;40.10;27.10;;;;;;;10.15;100.00;102343.50;5035598;28;20397;-88
2021/11/20 00:28:40;;;;;;;36.78;26.17;;;;;;;10.14;100.00;102346.31;5054631;28;20048;-88
2021/11/20 00:31:09;;;;;;;39.40;27.58;;;;;;;10.13;100.00;102339.25;5048204;28;20079;-89
2021/11/20 00:33:37;;;;;;;40.90;27.20;;;;;;;10.12;100.00;102337.53;5035856;28;20041;-88
2021/11/20 00:36:04;;;;;;;37.85;26.73;;;;;;;10.10;100.00;102329.63;5039707;28;20132;-89
2021/11/20 00:38:30;;;;;;;40.15;28.95;;;;;;;10.13;100.00;102328.53;5037793;28;20044;-88
2021/11/20 00:40:59;;;;;;;37.38;27.15;;;;;;;10.11;100.00;102336.69;5045362;28;20066;-87
2021/11/20 00:43:26;;;;;;;38.58;26.58;;;;;;;10.10;100.00;102328.78;5053293;28;20033;-88
2021/11/20 00:45:52;;;;;;;37.65;25.27;;;;;;;10.09;100.00;102330.56;5037085;28;20048;-89
2021/11/20 00:48:20;;;;;;;39.80;25.67;;;;;;;10.10;100.00;102334.97;5046060;28;20041;-88
2021/11/20 00:50:50;;;;;;;39.87;29.70;;;;;;;10.12;100.00;102330.31;5038726;28;20638;-88
2021/11/20 00:53:16;;;;;;;36.35;28.10;;;;;;;10.09;100.00;102321.69;5037227;28;20049;-88
2021/11/20 00:55:43;;;;;;;44.35;29.58;;;;;;;10.11;100.00;102328.63;5038655;28;20059;-88
2021/11/20 00:58:08;;;;;;;42.75;31.00;;;;;;;10.11;100.00;102331.31;5038567;28;20048;-88
2021/11/20 01:00:38;;;;;;;38.78;28.27;;;;;;;10.09;100.00;102322.53;5026071;28;20048;-89
2021/11/20 01:03:04;;;;;;;36.28;27.27;;;;;;;10.09;100.00;102321.69;5058954;28;20053;-88
2021/11/20 01:05:31;;;;;;;41.85;28.33;;;;;;;10.08;100.00;102325.34;5043826;28;20047;-89
2021/11/20 01:07:57;;;;;;;40.72;28.92;;;;;;;10.08;100.00;102326.19;5042636;28;20041;-89
2021/11/20 01:10:30;;;;;;;38.60;26.48;;;;;;;10.05;100.00;102318.41;5057890;28;20053;-88
2021/11/20 01:12:57;;;;;;;38.97;26.60;;;;;;;10.07;100.00;102323.63;5036919;28;20037;-88
2021/11/20 01:15:30;;;;;;;41.53;30.08;;;;;;;10.09;100.00;102321.69;5042021;28;20048;-89
2021/11/20 01:17:55;;;;;;;37.35;28.77;;;;;;;10.06;100.00;102320.09;5039013;28;20045;-89
2021/11/20 01:20:21;;;;;;;36.78;25.85;;;;;;;10.06;100.00;102316.56;5046563;28;20048;-88
2021/11/20 01:22:47;;;;;;;41.83;27.92;;;;;;;10.05;100.00;102321.09;5045678;28;20051;-87
2021/11/20 01:25:14;;;;;;;36.83;25.80;;;;;;;10.06;100.00;102319.25;5041010;28;20045;-87
2021/11/20 01:27:39;;;;;;;35.53;26.35;;;;;;;10.05;100.00;102321.09;5037446;28;20055;-88
2021/11/20 01:30:07;;;;;;;40.13;28.73;;;;;;;10.08;100.00;102319.97;5038088;28;20045;-89
2021/11/20 01:32:32;;;;;;;35.67;26.50;;;;;;;10.06;100.00;102320.09;5057341;28;20682;-88
2021/11/20 01:34:58;;;;;;;38.13;26.58;;;;;;;10.07;100.00;102320.94;5054721;28;20055;-88
2021/11/20 01:37:23;;;;;;;38.78;28.08;;;;;;;10.06;100.00;102322.78;5036921;28;20040;-88
2021/11/20 01:39:49;;;;;;;38.72;27.70;;;;;;;10.05;100.00;102317.56;5033045;28;20388;-88
2021/11/20 01:42:21;;;;;;;40.50;25.45;;;;;;;10.04;100.00;102322.06;5055765;28;20052;-87
2021/11/20 01:44:51;;;;;;;37.13;27.00;;;;;;;10.04;100.00;102311.34;5040963;28;20044;-87
2021/11/20 01:47:22;;;;;;;35.97;26.00;;;;;;;10.03;100.00;102317.66;5048948;28;21004;-87
2021/11/20 01:49:53;;;;;;;34.40;25.20;;;;;;;10.01;100.00;102314.28;5042248;28;20610;-88
2021/11/20 01:52:46;;;;;;;36.38;24.42;;;;;;;10.01;100.00;102308.91;5044035;28;20409;-89
2021/11/20 01:55:32;;;;;;;34.50;24.63;;;;;;;9.99;100.00;102305.50;5039214;28;20480;-88
2021/11/20 01:57:57;;;;;;;34.08;24.17;;;;;;;9.99;100.00;102310.84;5031401;28;20946;-89
2021/11/20 02:00:40;;;;;;;33.72;26.38;;;;;;;10.00;100.00;102300.97;5041816;28;20098;-88
2021/11/20 02:03:08;;;;;;;38.58;25.13;;;;;;;9.99;100.00;102294.75;5046990;28;20056;-88
2021/11/20 02:06:03;;;;;;;37.28;24.80;;;;;;;10.00;100.00;102287.56;5036546;28;20053;-88
2021/11/20 02:08:57;;;;;;;34.42;23.35;;;;;;;9.98;100.00;102286.81;5039166;28;20037;-90
2021/11/20 02:11:34;;;;;;;33.60;23.52;;;;;;;9.98;100.00;102276.09;5044032;28;20037;-88
2021/11/20 02:14:00;;;;;;;34.50;25.92;;;;;;;9.97;100.00;102275.25;5058135;28;20040;-88
2021/11/20 02:16:32;;;;;;;32.97;23.05;;;;;;;9.97;100.00;102275.25;5062494;28;20120;-88
2021/11/20 02:19:00;;;;;;;32.78;23.02;;;;;;;9.98;100.00;102270.72;5061418;28;20068;-88
2021/11/20 02:21:36;;;;;;;35.87;26.53;;;;;;;10.00;100.00;102283.03;5052073;28;20049;-88
2021/11/20 02:24:02;;;;;;;31.08;22.77;;;;;;;9.97;100.00;102274.41;5059227;28;20570;-88
2021/11/20 02:26:27;;;;;;;33.50;23.58;;;;;;;9.97;100.00;102263.69;5041883;28;20220;-88
2021/11/20 02:28:55;;;;;;;35.08;25.77;;;;;;;9.98;100.00;102271.59;5044581;28;20049;-87
2021/11/20 02:31:21;;;;;;;31.45;22.67;;;;;;;9.96;100.00;102273.56;5059348;28;20046;-88
2021/11/20 02:33:48;;;;;;;30.80;23.27;;;;;;;9.98;100.00;102268.91;5048793;28;20131;-88
2021/11/20 02:36:16;;;;;;;31.42;23.90;;;;;;;9.96;100.00;102270.88;5044589;28;22149;-88
2021/11/20 02:38:45;;;;;;;37.87;25.83;;;;;;;9.98;100.00;102258.16;5064231;28;20036;-88
2021/11/20 02:41:14;;;;;;;34.15;22.90;;;;;;;9.97;100.00;102252.94;5059744;28;20044;-88
2021/11/20 02:43:43;;;;;;;34.78;24.00;;;;;;;9.96;100.00;102251.25;5043868;28;20499;-87
2021/11/20 02:46:11;;;;;;;33.60;23.52;;;;;;;9.97;100.00;102259.16;5042417;28;20045;-88
2021/11/20 02:48:37;;;;;;;31.75;21.65;;;;;;;9.95;100.00;102245.00;5061607;28;20043;-88
2021/11/20 02:51:20;;;;;;;32.72;22.70;;;;;;;9.97;100.00;102244.91;5060056;28;20059;-88
2021/11/20 02:53:52;;;;;;;33.60;22.98;;;;;;;9.97;100.00;102243.06;5049096;28;20043;-86
2021/11/20 02:56:22;;;;;;;37.22;26.98;;;;;;;9.94;100.00;102238.81;5014694;28;20033;-88
2021/11/20 02:58:48;;;;;;;35.75;24.08;;;;;;;9.96;100.00;102237.84;5037697;28;20037;-88
2021/11/20 03:01:27;;;;;;;36.13;26.27;;;;;;;9.95;100.00;102239.66;5023276;28;20119;-88
2021/11/20 03:03:55;;;;;;;30.60;23.25;;;;;;;9.94;100.00;102236.13;5011925;28;20041;-89
2021/11/20 03:06:21;;;;;;;34.30;23.60;;;;;;;9.93;100.00;102230.91;5040544;28;20049;-87
2021/11/20 03:08:47;;;;;;;34.00;22.13;;;;;;;9.92;100.00;102219.28;5022836;28;20045;-88
2021/11/20 03:11:13;;;;;;;36.25;23.35;;;;;;;9.93;100.00;102230.91;5020811;28;20048;-89
2021/11/20 03:13:44;;;;;;;34.35;23.55;;;;;;;9.94;100.00;102237.97;5023144;28;20388;-88
2021/11/20 03:16:10;;;;;;;32.88;24.55;;;;;;;9.96;100.00;102237.84;5041153;28;20519;-88
2021/11/20 03:18:36;;;;;;;33.08;23.38;;;;;;;9.94;100.00;102233.44;5022978;28;20047;-88
2021/11/20 03:21:02;;;;;;;34.13;22.80;;;;;;;9.92;100.00;102226.50;5021865;28;20049;-88
2021/11/20 03:23:34;;;;;;;33.13;23.83;;;;;;;9.94;100.00;102221.88;5040542;28;20113;-87
2021/11/20 03:26:00;;;;;;;37.72;26.25;;;;;;;9.94;100.00;102219.19;5034612;28;20049;-88
2021/11/20 03:28:25;;;;;;;36.42;25.48;;;;;;;9.96;100.00;102219.91;5021085;28;20047;-88
2021/11/20 03:30:51;;;;;;;36.17;25.95;;;;;;;9.96;100.00;102208.34;5022674;28;20045;-88
2021/11/20 03:33:17;;;;;;;39.28;27.92;;;;;;;9.94;100.00;102216.50;5024082;28;20091;-88
2021/11/20 03:35:43;;;;;;;36.60;23.60;;;;;;;9.92;100.00;102205.03;5020828;28;20037;-89
2021/11/20 03:38:10;;;;;;;38.17;22.98;;;;;;;9.91;100.00;102211.41;5052935;28;20508;-88
2021/11/20 03:40:37;;;;;;;30.73;21.65;;;;;;;9.90;100.00;102209.69;5056353;28;20040;-88
2021/11/20 03:43:04;;;;;;;34.10;23.90;;;;;;;9.93;100.00;102206.78;5058468;28;20769;-88
2021/11/20 03:45:32;;;;;;;42.35;23.92;;;;;;;9.90;100.00;102207.88;5059779;28;20052;-88
2021/11/20 03:47:59;;;;;;;36.37;25.43;;;;;;;9.90;100.00;102209.69;5060454;28;20048;-88
2021/11/20 03:50:25;;;;;;;36.13;23.15;;;;;;;9.89;100.00;102208.81;5044082;28;20290;-88
2021/11/20 03:52:51;;;;;;;35.95;22.30;;;;;;;9.89;100.00;102207.97;5031328;28;20045;-87
2021/11/20 03:55:21;;;;;;;32.40;24.15;;;;;;;9.89;100.00;102206.16;5044553;28;20028;-87
2021/11/20 03:57:46;;;;;;;;;;;;;;;9.89;100.00;102211.50;5022947;28;20041;-88
2021/11/20 04:00:16;;;;;;;33.22;23.90;;;;;;;9.81;100.00;102224.72;5044178;28;19921;-88
2021/11/20 04:02:43;;;;;;;33.60;21.35;;;;;;;9.83;100.00;102205.81;5053275;28;20045;-89
2021/11/20 04:05:10;;;;;;;32.35;23.25;;;;;;;9.84;100.00;102204.81;5042467;28;20056;-88
2021/11/20 04:07:35;;;;;;;37.50;24.75;;;;;;;9.86;100.00;102213.59;5056546;28;20059;-88
2021/11/20 04:10:03;;;;;;;36.97;24.98;;;;;;;9.85;100.00;102215.44;5038270;28;20045;-88
2021/11/20 04:12:28;;;;;;;35.08;23.77;;;;;;;9.84;100.00;102212.84;5056070;28;20139;-88
2021/11/20 04:14:54;;;;;;;36.28;25.35;;;;;;;9.86;100.00;102202.88;5025097;28;20116;-88
2021/11/20 04:17:19;;;;;;;29.95;21.48;;;;;;;9.85;100.00;102219.94;5041929;28;20041;-88
2021/11/20 04:19:45;;;;;;;35.95;23.33;;;;;;;9.85;100.00;102201.19;5041997;28;20033;-88
2021/11/20 04:22:10;;;;;;;36.05;22.70;;;;;;;9.84;100.00;102207.50;5057006;28;20130;-88
2021/11/20 04:24:36;;;;;;;33.70;22.45;;;;;;;9.83;100.00;102213.84;5042113;28;20442;-88
2021/11/20 04:27:02;;;;;;;31.05;22.65;;;;;;;9.83;100.00;102208.47;5057203;28;20033;-88
2021/11/20 04:29:28;;;;;;;35.20;22.45;;;;;;;9.82;100.00;102204.09;5056900;28;20394;-87
2021/11/20 04:31:53;;;;;;;35.28;22.65;;;;;;;9.82;100.00;102207.63;5055181;28;20039;-88
2021/11/20 04:34:18;;;;;;;34.80;23.02;;;;;;;9.80;100.00;102204.22;5039572;28;20055;-87
2021/11/20 04:36:44;;;;;;;35.78;22.00;;;;;;;9.79;100.00;102199.00;5039979;28;20040;-88
2021/11/20 04:39:11;;;;;;;37.22;23.38;;;;;;;9.79;100.00;102199.00;5053568;28;20172;-88
2021/11/20 04:41:37;;;;;;;36.75;22.95;;;;;;;9.78;100.00;102197.28;5024463;28;20427;-87
2021/11/20 04:44:03;;;;;;;35.22;24.02;;;;;;;9.77;100.00;102203.63;5040386;28;20036;-88
2021/11/20 04:46:29;;;;;;;34.97;22.88;;;;;;;9.75;100.00;102205.56;5058239;28;20029;-88
2021/11/20 04:48:55;;;;;;;34.72;21.92;;;;;;;9.75;100.00;102208.25;5042985;28;20048;-88
2021/11/20 04:51:22;;;;;;;34.63;24.08;;;;;;;9.74;100.00;102211.91;5061581;28;20044;-88
2021/11/20 04:53:49;;;;;;;32.88;23.77;;;;;;;9.73;100.00;102199.50;5060304;28;20524;-86
2021/11/20 04:56:17;;;;;;;35.10;24.48;;;;;;;9.73;100.00;102197.66;5047843;28;20071;-89
2021/11/20 04:58:45;;;;;;;32.80;21.90;;;;;;;9.71;100.00;102197.78;5052436;28;20048;-88
2021/11/20 05:01:11;;;;;;;35.55;21.88;;;;;;;9.70;100.00;102192.56;5037164;28;20076;-87
2021/11/20 05:03:38;;;;;;;29.98;20.20;;;;;;;9.68;100.00;102187.31;5063099;28;20769;-89
2021/11/20 05:06:05;;;;;;;31.65;23.08;;;;;;;9.70;100.00;102200.59;5059597;28;20081;-88
2021/11/20 05:08:30;;;;;;;30.85;21.70;;;;;;;9.68;100.00;102199.88;5058147;28;20044;-87
2021/11/20 05:10:56;;;;;;;31.30;21.33;;;;;;;9.67;100.00;102193.66;5062197;28;20044;-89
2021/11/20 05:13:24;;;;;;;30.88;22.02;;;;;;;9.68;100.00;102187.31;5060464;28;20040;-88
2021/11/20 05:15:52;;;;;;;31.00;22.60;;;;;;;9.66;100.00;102183.88;5057759;28;20040;-87
2021/11/20 05:18:18;;;;;;;34.08;22.67;;;;;;;9.64;100.00;102182.34;5063177;28;20055;-88
2021/11/20 05:20:45;;;;;;;33.53;21.00;;;;;;;9.63;100.00;102184.13;5059810;28;20044;-89
2021/11/20 05:23:11;;;;;;;34.08;24.83;;;;;;;9.67;100.00;102187.44;5055149;28;20063;-87
2021/11/20 05:25:37;;;;;;;32.10;22.25;;;;;;;9.68;100.00;102189.13;5054506;28;20562;-88
2021/11/20 05:28:03;;;;;;;30.02;20.40;;;;;;;9.67;100.00;102188.28;5036802;28;20041;-88
2021/11/20 05:30:34;;;;;;;33.03;21.92;;;;;;;9.68;100.00;102186.47;5044130;28;20140;-88
2021/11/20 05:33:02;;;;;;;31.92;22.52;;;;;;;9.67;100.00;102179.41;5060329;28;20098;-88
2021/11/20 05:35:30;;;;;;;32.35;22.67;;;;;;;9.66;100.00;102175.84;5063785;28;20068;-88
2021/11/20 05:37:56;;;;;;;32.63;23.50;;;;;;;9.66;100.00;102175.84;5064050;28;20047;-87
2021/11/20 05:40:22;;;;;;;34.70;21.67;;;;;;;9.65;100.00;102165.25;5038990;28;20044;-88
2021/11/20 05:42:51;;;;;;;33.33;23.30;;;;;;;9.66;100.00;102170.47;5049227;28;22048;-87
2021/11/20 05:45:19;;;;;;;32.13;22.40;;;;;;;9.67;100.00;102174.03;5057050;28;20637;-88
2021/11/20 05:47:46;;;;;;;32.87;21.30;;;;;;;9.64;100.00;102172.47;5060095;28;20659;-87
2021/11/20 05:50:12;;;;;;;35.63;25.20;;;;;;;9.64;100.00;102164.41;5040296;28;20047;-88
2021/11/20 05:52:38;;;;;;;36.10;22.95;;;;;;;9.64;100.00;102163.56;5059037;28;20414;-88
2021/11/20 05:55:06;;;;;;;32.50;23.95;;;;;;;9.65;100.00;102163.44;5055699;28;20105;-87
2021/11/20 05:57:32;;;;;;;33.72;22.88;;;;;;;9.66;100.00;102161.59;5059006;28;20049;-87
2021/11/20 05:59:57;;;;;;;37.45;25.52;;;;;;;9.65;100.00;102154.53;5040238;28;20586;-88
2021/11/20 06:02:23;;;;;;;36.22;23.83;;;;;;;9.62;100.00;102144.06;5057077;28;20048;-88
2021/11/20 06:04:48;;;;;;;36.50;25.63;;;;;;;9.61;100.00;102137.88;5062557;28;20042;-88
2021/11/20 06:07:14;;;;;;;37.00;23.58;;;;;;;9.60;100.00;102138.81;5059931;28;20542;-88
2021/11/20 06:09:41;;;;;;;34.53;24.48;;;;;;;9.63;100.00;102149.28;5055329;28;20052;-88
2021/11/20 06:12:08;;;;;;;33.88;25.00;;;;;;;9.62;100.00;102152.97;5043974;28;20514;-87
2021/11/20 06:14:33;;;;;;;37.42;26.38;;;;;;;9.65;100.00;102144.66;5061759;28;20681;-88
2021/11/20 06:16:59;;;;;;;34.75;25.13;;;;;;;9.61;100.00;102145.03;5042225;28;20055;-87
2021/11/20 06:19:25;;;;;;;36.00;25.33;;;;;;;9.60;100.00;102149.53;5056511;28;20559;-87
2021/11/20 06:21:51;;;;;;;37.67;23.98;;;;;;;9.60;100.00;102141.50;5059762;28;20051;-88
2021/11/20 06:24:17;;;;;;;33.35;22.92;;;;;;;9.58;100.00;102138.13;5039217;28;20121;-88
2021/11/20 06:26:43;;;;;;;35.53;24.13;;;;;;;9.59;100.00;102136.28;5040507;28;20041;-88
2021/11/20 06:29:09;;;;;;;34.50;25.48;;;;;;;9.58;100.00;102127.41;5058099;28;20051;-88
2021/11/20 06:31:34;;;;;;;37.53;23.27;;;;;;;9.58;100.00;102132.75;5037778;28;20041;-87
2021/11/20 06:34:00;;;;;;;34.78;22.25;;;;;;;9.56;100.00;102134.69;5043554;28;20075;-88
2021/11/20 06:36:31;;;;;;;37.97;25.50;;;;;;;9.58;100.00;102135.44;5060569;28;20106;-87
2021/11/20 06:38:57;;;;;;;38.75;25.00;;;;;;;9.56;100.00;102132.03;5055653;28;20047;-88
2021/11/20 06:41:23;;;;;;;39.67;26.02;;;;;;;9.56;100.00;102132.03;5054885;28;20040;-88
2021/11/20 06:43:49;;;;;;;42.17;26.42;;;;;;;9.55;100.00;102122.28;5057583;28;20042;-89
2021/11/20 06:46:16;;;;;;;40.40;25.33;;;;;;;9.56;100.00;102126.66;5058133;28;20132;-88
2021/11/20 06:48:42;;;;;;;45.40;27.75;;;;;;;9.56;100.00;102129.34;5061440;28;20032;-88
2021/11/20 06:51:08;;;;;;;44.72;27.92;;;;;;;9.57;100.00;102133.72;5042440;28;20452;-87
2021/11/20 06:53:34;;;;;;;44.13;27.55;;;;;;;9.57;100.00;102127.50;5043824;28;20049;-88
2021/11/20 06:56:01;;;;;;;47.35;29.02;;;;;;;9.57;100.00;102127.50;5063312;28;20121;-88
2021/11/20 07:01:03;;;;;;;46.70;28.27;;;;;;;9.56;100.00;102131.19;5062475;28;20086;-88
2021/11/20 07:03:32;;;;;;;48.20;29.15;;;;;;;9.58;100.00;102129.22;5025682;28;20101;-88
2021/11/20 07:06:07;;;;;;;49.03;29.02;;;;;;;9.55;100.00;102130.34;5060130;28;20045;-87
2021/11/20 07:08:32;;;;;;;48.53;27.98;;;;;;;9.55;100.00;102126.78;5047739;28;20494;-88
2021/11/20 07:11:00;;;;;;;49.13;32.13;;;;;;;9.56;100.00;102128.50;5055335;28;20128;-86
2021/11/20 07:13:25;;;;;;;49.20;28.45;;;;;;;9.54;100.00;102128.59;5044311;28;20194;-88
2021/11/20 07:15:52;;;;;;;50.17;29.90;;;;;;;9.55;100.00;102130.34;5050539;28;20544;-88
2021/11/20 07:18:19;;;;;;;48.35;30.65;;;;;;;9.54;100.00;102131.28;5037146;28;20044;-87
2021/11/20 07:20:45;;;;;;;55.97;32.60;;;;;;;9.54;100.00;102133.97;5061267;28;20052;-89
2021/11/20 07:23:10;;;;;;;55.05;31.75;;;;;;;9.54;100.00;102133.97;5028684;28;20106;-86
2021/11/20 07:25:37;;;;;;;54.75;33.58;;;;;;;9.56;100.00;102137.38;5048318;28;20521;-87
2021/11/20 07:28:04;;;;;;;58.35;32.05;;;;;;;9.54;100.00;102133.13;5059250;28;20384;-88
2021/11/20 07:30:32;;;;;;;53.25;32.83;;;;;;;9.54;100.00;102131.28;5062831;28;20036;-88
2021/11/20 07:32:57;;;;;;;52.65;32.75;;;;;;;9.56;100.00;102132.03;5064198;28;20451;-88
2021/11/20 07:35:36;;;;;;;51.47;30.05;;;;;;;9.57;100.00;102133.72;5041991;28;20037;-88
2021/11/20 07:38:05;;;;;;;53.42;30.70;;;;;;;9.57;100.00;102123.00;5045476;28;20064;-89
2021/11/20 07:40:33;;;;;;;55.05;33.35;;;;;;;9.59;100.00;102130.94;5066734;28;20049;-89
2021/11/20 07:43:01;;;;;;;54.83;29.95;;;;;;;9.57;100.00;102131.03;5053516;28;20037;-89
2021/11/20 07:45:27;;;;;;;53.60;30.33;;;;;;;9.59;100.00;102129.09;5061540;28;20049;-89
2021/11/20 07:47:52;;;;;;;53.55;27.48;;;;;;;9.57;100.00;102122.16;5045351;28;20653;-88
2021/11/20 07:50:21;;;;;;;54.78;30.58;;;;;;;9.60;100.00;102121.91;5057014;28;20041;-90
2021/11/20 07:52:47;;;;;;;57.72;33.25;;;;;;;9.58;100.00;102122.03;5048651;28;20545;-89
2021/11/20 07:55:16;;;;;;;59.72;32.90;;;;;;;9.58;100.00;102124.72;5048453;28;20190;-90
2021/11/20 07:57:41;;;;;;;59.63;34.50;;;;;;;9.58;100.00;102118.47;5040446;28;20526;-89
2021/11/20 08:00:12;;;;;;;55.08;30.70;;;;;;;9.56;100.00;102115.94;5044235;28;20056;-89
2021/11/20 08:02:37;;;;;;;61.67;34.10;;;;;;;9.59;100.00;102117.53;5041039;28;20142;-89
2021/11/20 08:05:03;;;;;;;58.60;33.28;;;;;;;9.58;100.00;102116.69;5041457;28;20132;-89
2021/11/20 08:07:29;;;;;;;57.10;30.52;;;;;;;9.58;100.00;102115.81;5025819;28;20499;-88
2021/11/20 08:09:54;;;;;;;54.22;30.48;;;;;;;9.57;100.00;102117.63;5035681;28;20048;-90
2021/11/20 08:12:20;;;;;;;59.38;34.67;;;;;;;9.60;100.00;102117.38;5039720;28;20048;-88
2021/11/20 08:14:46;;;;;;;57.42;30.15;;;;;;;9.57;100.00;102112.28;5047161;28;20037;-89
2021/11/20 08:17:12;;;;;;;59.60;31.55;;;;;;;9.57;100.00;102117.63;5040280;28;20044;-89
2021/11/20 08:19:37;;;;;;;58.15;33.83;;;;;;;9.60;100.00;102112.03;5060386;28;20040;-89
2021/11/20 08:22:03;;;;;;;58.60;32.42;;;;;;;9.56;100.00;102102.53;5033277;28;20539;-89
2021/11/20 08:24:28;;;;;;;58.00;34.00;;;;;;;9.59;100.00;102102.28;5048924;28;20546;-89
2021/11/20 08:26:55;;;;;;;62.40;32.65;;;;;;;9.60;100.00;102095.94;5048688;28;20509;-88
2021/11/20 08:29:22;;;;;;;59.45;30.98;;;;;;;9.57;100.00;102092.66;5037276;28;20044;-89
2021/11/20 08:31:50;;;;;;;57.95;32.35;;;;;;;9.59;100.00;102091.56;5057238;28;20388;-89
2021/11/20 08:34:17;;;;;;;57.28;30.75;;;;;;;9.57;100.00;102096.19;5042750;28;20048;-90
2021/11/20 08:36:44;;;;;;;58.92;31.15;;;;;;;9.60;100.00;102100.47;5057730;28;20127;-89
2021/11/20 08:39:14;;;;;;;55.45;30.00;;;;;;;9.58;100.00;102091.69;5051951;28;20045;-90
2021/11/20 08:41:40;;;;;;;60.78;32.25;;;;;;;9.61;100.00;102104.84;5009591;28;20045;-89
2021/11/20 08:44:08;;;;;;;60.55;35.63;;;;;;;9.63;100.00;102101.06;4993184;28;20046;-89
2021/11/20 08:46:35;;;;;;;55.47;28.85;;;;;;;9.61;100.00;102103.03;4983950;28;20053;-89
2021/11/20 08:49:01;;;;;;;55.38;29.58;;;;;;;9.59;100.00;102096.94;5012827;28;20056;-89
2021/11/20 08:51:28;;;;;;;54.22;30.92;;;;;;;9.60;100.00;102093.25;5013476;28;20045;-88
2021/11/20 08:53:57;;;;;;;57.45;30.60;;;;;;;9.60;100.00;102095.94;4988922;28;20109;-90
2021/11/20 08:56:24;;;;;;;58.38;33.00;;;;;;;9.60;100.00;102087.91;5000785;28;20040;-89
2021/11/20 08:58:52;;;;;;;59.92;35.15;;;;;;;9.63;100.00;102095.69;5019651;28;20302;-90
2021/11/20 09:01:25;;;;;;;60.72;35.17;;;;;;;9.64;100.00;102089.38;5003896;28;20049;-88
2021/11/20 09:03:56;;;;;;;66.22;32.38;;;;;;;9.59;100.00;102080.00;5018709;28;20051;-91
2021/11/20 09:06:37;;;;;;;64.72;36.47;;;;;;;9.61;100.00;102086.06;5008531;28;20056;-89
2021/11/20 09:09:02;;;;;;;64.45;37.67;;;;;;;9.62;100.00;102079.75;5034840;28;20068;-90
2021/11/20 09:11:49;;;;;;;70.85;37.03;;;;;;;9.59;100.00;102077.31;5046920;28;20106;-90
2021/11/20 09:14:37;;;;;;;64.75;39.47;;;;;;;9.60;100.00;102054.91;5010985;28;20040;-89
2021/11/20 09:17:04;;;;;;;68.63;33.53;;;;;;;9.55;100.00;102067.81;5010452;28;20041;-90
2021/11/20 09:19:32;;;;;;;67.28;38.08;;;;;;;9.58;100.00;102073.81;5041888;28;20137;-89
2021/11/20 09:22:00;;;;;;;70.30;37.33;;;;;;;9.58;100.00;102064.88;5050939;28;20041;-89
2021/11/20 09:24:29;;;;;;;72.50;39.45;;;;;;;9.55;100.00;102055.31;5037525;28;20051;-88
2021/11/20 09:26:55;;;;;;;69.25;35.65;;;;;;;9.58;100.00;102059.53;5054285;28;20055;-88
2021/11/20 09:29:23;;;;;;;67.30;39.45;;;;;;;9.60;100.00;102052.22;5040771;28;20048;-89
2021/11/20 09:31:50;;;;;;;69.17;37.43;;;;;;;9.57;100.00;102047.13;5054822;28;20045;-89
2021/11/20 09:34:16;;;;;;;72.05;40.53;;;;;;;9.57;100.00;102045.28;5037361;28;20236;-89
2021/11/20 09:36:44;;;;;;;69.95;35.80;;;;;;;9.55;100.00;102054.41;5041591;28;20116;-89
2021/11/20 09:39:12;;;;;;;60.80;34.40;;;;;;;9.56;100.00;102056.16;5036912;28;20102;-88
2021/11/20 09:41:59;;;;;;;66.50;39.42;;;;;;;9.54;100.00;102048.22;5056346;28;20060;-89
2021/11/20 09:44:26;;;;;;;65.63;36.30;;;;;;;9.52;100.00;102047.47;5034775;28;20515;-89
2021/11/20 09:46:56;;;;;;;64.15;38.20;;;;;;;9.53;100.00;102046.53;5043287;28;20049;-89
2021/11/20 09:49:36;;;;;;;68.68;36.75;;;;;;;9.52;100.00;102050.16;5032657;28;20041;-88
2021/11/20 09:52:08;;;;;;;65.00;39.67;;;;;;;9.54;100.00;102050.06;5044178;28;20067;-89
2021/11/20 09:54:38;;;;;;;62.92;35.05;;;;;;;9.53;100.00;102048.38;5064043;28;20484;-89
2021/11/20 09:57:19;;;;;;;66.75;36.47;;;;;;;9.53;100.00;102037.66;5061270;28;20479;-89
2021/11/20 10:00:10;;;;;;;71.10;38.92;;;;;;;9.54;100.00;102028.63;5057322;28;20044;-88
2021/11/20 10:02:56;;;;;;;71.05;41.78;;;;;;;9.52;100.00;102038.59;5059870;28;20052;-86
2021/11/20 10:05:26;;;;;;;75.32;40.25;;;;;;;9.48;100.00;102033.50;5038214;28;20048;-90
2021/11/20 10:08:04;;;;;;;82.22;45.35;;;;;;;9.54;100.00;102031.28;5046151;28;20044;-89
2021/11/20 10:10:44;;;;;;;74.78;38.60;;;;;;;9.51;100.00;102021.69;5054804;28;20049;-88
2021/11/20 10:13:15;;;;;;;77.53;40.58;;;;;;;9.48;100.00;102019.25;5033712;28;20102;-88
2021/11/20 10:15:58;;;;;;;83.93;41.95;;;;;;;9.47;100.00;102015.72;5062801;28;20546;-86
2021/11/20 10:18:47;;;;;;;81.28;41.38;;;;;;;9.47;100.00;102012.19;5000167;28;20049;-88
2021/11/20 10:21:21;;;;;;;77.43;38.22;;;;;;;9.47;100.00;102004.16;5037299;28;20041;-87
2021/11/20 10:23:59;;;;;;;80.15;41.00;;;;;;;9.53;100.00;102009.00;5058508;28;21127;-86
2021/11/20 10:26:42;;;;;;;80.05;46.55;;;;;;;9.53;100.00;102008.16;5037898;28;20072;-88
2021/11/20 10:29:32;;;;;;;79.38;42.72;;;;;;;9.51;100.00;102000.25;5050212;28;20145;-87
2021/11/20 10:32:18;;;;;;;79.65;38.17;;;;;;;9.51;100.00;102007.44;5061364;28;20037;-86
2021/11/20 10:38:55;;;;;;;77.65;43.10;;;;;;;9.45;100.00;101990.88;5001686;28;20173;-90
2021/11/20 10:41:32;;;;;;;76.25;40.40;;;;;;;9.45;100.00;101980.16;5013359;28;20053;-87
2021/11/20 10:44:39;;;;;;;72.28;38.17;;;;;;;9.44;100.00;101978.47;5047806;28;20040;-88
2021/11/20 10:47:10;;;;;;;70.22;39.60;;;;;;;9.48;100.00;101976.38;5014229;28;20052;-89
2021/11/20 10:50:08;;;;;;;70.22;38.17;;;;;;;9.47;100.00;101972.00;5057700;28;20064;-89
2021/11/20 10:52:48;;;;;;;67.07;34.05;;;;;;;9.46;100.00;101981.00;5032275;28;20052;-88
2021/11/20 10:55:33;;;;;;;65.80;35.03;;;;;;;9.46;99.59;101970.28;5061816;28;20111;-91
2021/11/20 10:58:35;;;;;;;67.65;36.85;;;;;;;9.50;100.00;101966.41;5056901;28;20495;-90
2021/11/20 11:01:34;;;;;;;62.70;37.25;;;;;;;9.50;100.00;101950.31;5051551;28;20036;-89
2021/11/20 11:04:17;;;;;;;65.88;39.05;;;;;;;9.49;100.00;101960.19;5035957;28;20035;-89
2021/11/20 11:07:02;;;;;;;59.15;36.55;;;;;;;9.50;100.00;101969.06;5032701;28;20621;-89
2021/11/20 11:09:51;;;;;;;61.42;36.58;;;;;;;9.55;100.00;101966.88;5006084;28;20124;-89
2021/11/20 11:12:35;;;;;;;;;;;;;;;9.55;100.00;101949.91;5032556;28;20044;-87
2021/11/20 11:15:12;;;;;;;62.50;35.70;;;;;;;9.48;100.00;101946.91;5026529;28;20122;-89
2021/11/20 11:18:02;;;;;;;60.00;33.65;;;;;;;9.51;100.00;101951.16;5028443;28;21190;-88
2021/11/20 11:21:06;;;;;;;59.30;31.35;;;;;;;9.52;100.00;101942.97;5018344;28;20140;-87
2021/11/20 11:24:10;;;;;;;63.90;35.42;;;;;;;9.51;100.00;101930.56;5026321;28;20099;-89
2021/11/20 11:26:46;;;;;;;59.38;33.80;;;;;;;9.53;100.00;101925.09;5001802;28;20049;-87
2021/11/20 11:29:57;;;;;;;57.55;31.67;;;;;;;9.51;100.00;101909.13;5013631;28;20134;-88